sensor_id;sensor_type;location;lat;lon;timestamp;P1;durP1;ratioP1;P2;durP2;ratioP2
58306;SDS011;44116;50.884;4.768;2023-04-15T00:03:06;8.8;;;3.1;;
58306;SDS011;44116;50.884;4.768;2023-04-15T00:05:06;7.4;;;2.9;;
58306;SDS011;44116;50.884;4.768;2023-04-15T00:09:05;8.4;;;3.1;;
58306;SDS011;44116;50.884;4.768;2023-04-15T00:15:05;8.7;;;2.9;;
58306;SDS011;44116;50.884;4.768;2023-04-15T00:17:04;7.6;;;2.8;;
58306;SDS011;44116;50.884;4.768;2023-04-15T00:19:03;7.2;;;3.1;;
58306;SDS011;44116;50.884;4.768;2023-04-15T00:21:04;6.5;;;2.7;;
58306;SDS011;44116;50.884;4.768;2023-04-15T00:23:03;7.5;;;3.3;;
58306;SDS011;44116;50.884;4.768;2023-04-15T00:25:03;7.1;;;3.5;;
58306;SDS011;44116;50.884;4.768;2023-04-15T00:29:02;9.1;;;3.4;;
58306;SDS011;44116;50.884;4.768;2023-04-15T00:33:01;8.4;;;3.9;;
58306;SDS011;44116;50.884;4.768;2023-04-15T00:35:01;6.2;;;3.0;;
58306;SDS011;44116;50.884;4.768;2023-04-15T00:37:00;10.7;;;3.7;;
58306;SDS011;44116;50.884;4.768;2023-04-15T00:39:06;8.9;;;3.5;;
58306;SDS011;44116;50.884;4.768;2023-04-15T00:41:00;8.9;;;3.6;;
58306;SDS011;44116;50.884;4.768;2023-04-15T00:43:00;8.7;;;3.5;;
58306;SDS011;44116;50.884;4.768;2023-04-15T00:44:59;6.8;;;3.4;;
58306;SDS011;44116;50.884;4.768;2023-04-15T00:46:59;7.4;;;3.7;;
58306;SDS011;44116;50.884;4.768;2023-04-15T00:48:59;7.5;;;3.6;;
58306;SDS011;44116;50.884;4.768;2023-04-15T00:50:58;8.7;;;3.4;;
58306;SDS011;44116;50.884;4.768;2023-04-15T00:52:58;7.5;;;4.1;;
58306;SDS011;44116;50.884;4.768;2023-04-15T00:54:58;5.5;;;3.6;;
58306;SDS011;44116;50.884;4.768;2023-04-15T00:56:57;6.6;;;3.7;;
58306;SDS011;44116;50.884;4.768;2023-04-15T01:00:57;8.7;;;3.9;;
58306;SDS011;44116;50.884;4.768;2023-04-15T01:04:56;8.2;;;4.2;;
58306;SDS011;44116;50.884;4.768;2023-04-15T01:06:56;8.8;;;4.0;;
58306;SDS011;44116;50.884;4.768;2023-04-15T01:08:56;9.5;;;3.9;;
58306;SDS011;44116;50.884;4.768;2023-04-15T01:10:56;8.2;;;3.8;;
58306;SDS011;44116;50.884;4.768;2023-04-15T01:12:55;9.8;;;4.1;;
58306;SDS011;44116;50.884;4.768;2023-04-15T01:16:54;7.2;;;3.8;;
58306;SDS011;44116;50.884;4.768;2023-04-15T01:18:54;8.1;;;3.9;;
58306;SDS011;44116;50.884;4.768;2023-04-15T01:20:54;7.2;;;3.4;;
58306;SDS011;44116;50.884;4.768;2023-04-15T01:22:54;8.4;;;4.0;;
58306;SDS011;44116;50.884;4.768;2023-04-15T01:24:56;6.1;;;3.3;;
58306;SDS011;44116;50.884;4.768;2023-04-15T01:26:52;9.9;;;4.1;;
58306;SDS011;44116;50.884;4.768;2023-04-15T01:28:52;7.6;;;3.4;;
58306;SDS011;44116;50.884;4.768;2023-04-15T01:31:05;8.8;;;3.7;;
58306;SDS011;44116;50.884;4.768;2023-04-15T01:32:52;7.3;;;3.9;;
58306;SDS011;44116;50.884;4.768;2023-04-15T01:34:51;8.5;;;4.0;;
58306;SDS011;44116;50.884;4.768;2023-04-15T01:36:51;7.3;;;3.8;;
58306;SDS011;44116;50.884;4.768;2023-04-15T01:38:51;8.1;;;3.9;;
58306;SDS011;44116;50.884;4.768;2023-04-15T01:40:50;8.5;;;3.8;;
58306;SDS011;44116;50.884;4.768;2023-04-15T01:42:50;6.9;;;3.9;;
58306;SDS011;44116;50.884;4.768;2023-04-15T01:44:50;9.3;;;3.8;;
58306;SDS011;44116;50.884;4.768;2023-04-15T01:46:49;9.2;;;4.2;;
58306;SDS011;44116;50.884;4.768;2023-04-15T01:48:49;7.9;;;4.0;;
58306;SDS011;44116;50.884;4.768;2023-04-15T01:50:49;8.8;;;4.1;;
58306;SDS011;44116;50.884;4.768;2023-04-15T01:54:48;7.4;;;3.9;;
58306;SDS011;44116;50.884;4.768;2023-04-15T01:56:48;8.9;;;4.0;;
58306;SDS011;44116;50.884;4.768;2023-04-15T01:58:47;8.7;;;3.8;;
58306;SDS011;44116;50.884;4.768;2023-04-15T02:00:47;7.5;;;4.1;;
58306;SDS011;44116;50.884;4.768;2023-04-15T02:02:47;7.6;;;3.7;;
58306;SDS011;44116;50.884;4.768;2023-04-15T02:06:46;9.6;;;4.0;;
58306;SDS011;44116;50.884;4.768;2023-04-15T02:08:46;7.8;;;3.9;;
58306;SDS011;44116;50.884;4.768;2023-04-15T02:10:45;7.6;;;3.8;;
58306;SDS011;44116;50.884;4.768;2023-04-15T02:12:45;7.8;;;4.1;;
58306;SDS011;44116;50.884;4.768;2023-04-15T02:14:45;7.7;;;3.8;;
58306;SDS011;44116;50.884;4.768;2023-04-15T02:16:44;7.6;;;3.4;;
58306;SDS011;44116;50.884;4.768;2023-04-15T02:18:45;7.9;;;3.3;;
58306;SDS011;44116;50.884;4.768;2023-04-15T02:20:44;7.6;;;3.6;;
58306;SDS011;44116;50.884;4.768;2023-04-15T02:22:43;7.4;;;3.8;;
58306;SDS011;44116;50.884;4.768;2023-04-15T02:24:43;7.5;;;4.1;;
58306;SDS011;44116;50.884;4.768;2023-04-15T02:28:43;7.3;;;4.4;;
58306;SDS011;44116;50.884;4.768;2023-04-15T02:30:42;7.8;;;3.8;;
58306;SDS011;44116;50.884;4.768;2023-04-15T02:32:42;9.7;;;4.5;;
58306;SDS011;44116;50.884;4.768;2023-04-15T02:34:41;8.9;;;4.2;;
58306;SDS011;44116;50.884;4.768;2023-04-15T02:40:41;9.2;;;4.7;;
58306;SDS011;44116;50.884;4.768;2023-04-15T02:42:41;8.8;;;4.1;;
58306;SDS011;44116;50.884;4.768;2023-04-15T02:44:40;8.3;;;4.3;;
58306;SDS011;44116;50.884;4.768;2023-04-15T02:46:39;8.4;;;4.8;;
58306;SDS011;44116;50.884;4.768;2023-04-15T02:48:39;7.0;;;4.2;;
58306;SDS011;44116;50.884;4.768;2023-04-15T02:50:39;7.5;;;4.3;;
58306;SDS011;44116;50.884;4.768;2023-04-15T02:52:39;9.2;;;4.6;;
58306;SDS011;44116;50.884;4.768;2023-04-15T02:54:38;9.1;;;4.7;;
58306;SDS011;44116;50.884;4.768;2023-04-15T02:56:38;7.9;;;4.3;;
58306;SDS011;44116;50.884;4.768;2023-04-15T03:00:37;7.0;;;4.1;;
58306;SDS011;44116;50.884;4.768;2023-04-15T03:02:37;9.1;;;4.3;;
58306;SDS011;44116;50.884;4.768;2023-04-15T03:04:36;8.2;;;4.1;;
58306;SDS011;44116;50.884;4.768;2023-04-15T03:06:36;10.2;;;4.7;;
58306;SDS011;44116;50.884;4.768;2023-04-15T03:08:36;8.3;;;4.4;;
58306;SDS011;44116;50.884;4.768;2023-04-15T03:10:36;8.5;;;4.2;;
58306;SDS011;44116;50.884;4.768;2023-04-15T03:12:35;10.9;;;5.0;;
58306;SDS011;44116;50.884;4.768;2023-04-15T03:14:35;8.6;;;3.9;;
58306;SDS011;44116;50.884;4.768;2023-04-15T03:16:35;6.3;;;3.8;;
58306;SDS011;44116;50.884;4.768;2023-04-15T03:18:34;6.5;;;4.3;;
58306;SDS011;44116;50.884;4.768;2023-04-15T03:20:34;9.4;;;4.1;;
58306;SDS011;44116;50.884;4.768;2023-04-15T03:22:34;8.3;;;4.2;;
58306;SDS011;44116;50.884;4.768;2023-04-15T03:24:33;7.7;;;3.9;;
58306;SDS011;44116;50.884;4.768;2023-04-15T03:26:33;10.7;;;4.9;;
58306;SDS011;44116;50.884;4.768;2023-04-15T03:28:33;9.2;;;4.5;;
58306;SDS011;44116;50.884;4.768;2023-04-15T03:30:32;8.7;;;4.8;;
58306;SDS011;44116;50.884;4.768;2023-04-15T03:32:32;7.4;;;4.6;;
58306;SDS011;44116;50.884;4.768;2023-04-15T03:34:32;7.3;;;4.1;;
58306;SDS011;44116;50.884;4.768;2023-04-15T03:36:31;7.8;;;4.3;;
58306;SDS011;44116;50.884;4.768;2023-04-15T03:38:31;7.2;;;4.5;;
58306;SDS011;44116;50.884;4.768;2023-04-15T03:40:31;7.5;;;4.2;;
58306;SDS011;44116;50.884;4.768;2023-04-15T03:46:30;8.5;;;4.5;;
58306;SDS011;44116;50.884;4.768;2023-04-15T03:50:29;7.3;;;4.2;;
58306;SDS011;44116;50.884;4.768;2023-04-15T03:52:29;9.4;;;4.4;;
58306;SDS011;44116;50.884;4.768;2023-04-15T03:56:28;8.5;;;4.8;;
58306;SDS011;44116;50.884;4.768;2023-04-15T03:58:28;7.6;;;4.5;;
58306;SDS011;44116;50.884;4.768;2023-04-15T04:00:27;7.8;;;4.4;;
58306;SDS011;44116;50.884;4.768;2023-04-15T04:04:27;8.9;;;4.5;;
58306;SDS011;44116;50.884;4.768;2023-04-15T04:06:26;9.3;;;4.7;;
58306;SDS011;44116;50.884;4.768;2023-04-15T04:08:26;8.1;;;4.4;;
58306;SDS011;44116;50.884;4.768;2023-04-15T04:10:26;8.0;;;4.5;;
58306;SDS011;44116;50.884;4.768;2023-04-15T04:12:25;7.5;;;4.7;;
58306;SDS011;44116;50.884;4.768;2023-04-15T04:14:25;6.8;;;4.5;;
58306;SDS011;44116;50.884;4.768;2023-04-15T04:16:25;8.7;;;4.7;;
58306;SDS011;44116;50.884;4.768;2023-04-15T04:18:24;9.2;;;4.6;;
58306;SDS011;44116;50.884;4.768;2023-04-15T04:20:24;8.3;;;4.5;;
58306;SDS011;44116;50.884;4.768;2023-04-15T04:26:23;9.2;;;4.3;;
58306;SDS011;44116;50.884;4.768;2023-04-15T04:28:23;7.0;;;4.5;;
58306;SDS011;44116;50.884;4.768;2023-04-15T04:30:22;8.0;;;4.3;;
58306;SDS011;44116;50.884;4.768;2023-04-15T04:32:22;8.6;;;4.6;;
58306;SDS011;44116;50.884;4.768;2023-04-15T04:34:22;10.2;;;4.5;;
58306;SDS011;44116;50.884;4.768;2023-04-15T04:36:21;7.9;;;4.3;;
58306;SDS011;44116;50.884;4.768;2023-04-15T04:38:21;9.8;;;4.7;;
58306;SDS011;44116;50.884;4.768;2023-04-15T04:40:21;7.0;;;4.5;;
58306;SDS011;44116;50.884;4.768;2023-04-15T04:42:20;7.8;;;4.4;;
58306;SDS011;44116;50.884;4.768;2023-04-15T04:44:20;7.6;;;4.2;;
58306;SDS011;44116;50.884;4.768;2023-04-15T04:48:19;9.0;;;4.9;;
58306;SDS011;44116;50.884;4.768;2023-04-15T04:50:19;7.0;;;4.6;;
58306;SDS011;44116;50.884;4.768;2023-04-15T04:52:19;7.6;;;4.1;;
58306;SDS011;44116;50.884;4.768;2023-04-15T04:54:18;8.0;;;4.4;;
58306;SDS011;44116;50.884;4.768;2023-04-15T04:56:18;8.5;;;4.6;;
58306;SDS011;44116;50.884;4.768;2023-04-15T04:58:18;9.7;;;4.4;;
58306;SDS011;44116;50.884;4.768;2023-04-15T05:00:17;10.1;;;4.7;;
58306;SDS011;44116;50.884;4.768;2023-04-15T05:02:17;8.1;;;4.6;;
58306;SDS011;44116;50.884;4.768;2023-04-15T05:04:17;6.1;;;4.4;;
58306;SDS011;44116;50.884;4.768;2023-04-15T05:08:16;7.1;;;4.0;;
58306;SDS011;44116;50.884;4.768;2023-04-15T05:10:15;9.0;;;4.4;;
58306;SDS011;44116;50.884;4.768;2023-04-15T05:12:15;8.3;;;4.5;;
58306;SDS011;44116;50.884;4.768;2023-04-15T05:14:15;7.1;;;4.2;;
58306;SDS011;44116;50.884;4.768;2023-04-15T05:16:14;7.6;;;4.3;;
58306;SDS011;44116;50.884;4.768;2023-04-15T05:20:14;7.9;;;4.1;;
58306;SDS011;44116;50.884;4.768;2023-04-15T05:22:13;9.1;;;4.3;;
58306;SDS011;44116;50.884;4.768;2023-04-15T05:24:13;8.9;;;4.5;;
58306;SDS011;44116;50.884;4.768;2023-04-15T05:26:13;9.0;;;4.6;;
58306;SDS011;44116;50.884;4.768;2023-04-15T05:34:11;7.9;;;4.8;;
58306;SDS011;44116;50.884;4.768;2023-04-15T05:36:11;8.3;;;4.7;;
58306;SDS011;44116;50.884;4.768;2023-04-15T05:38:11;8.3;;;4.8;;
58306;SDS011;44116;50.884;4.768;2023-04-15T05:40:10;9.0;;;4.5;;
58306;SDS011;44116;50.884;4.768;2023-04-15T05:42:10;7.3;;;4.8;;
58306;SDS011;44116;50.884;4.768;2023-04-15T05:44:09;10.3;;;5.4;;
58306;SDS011;44116;50.884;4.768;2023-04-15T05:46:09;7.7;;;4.3;;
58306;SDS011;44116;50.884;4.768;2023-04-15T05:48:09;9.0;;;4.5;;
58306;SDS011;44116;50.884;4.768;2023-04-15T05:50:09;10.3;;;5.0;;
58306;SDS011;44116;50.884;4.768;2023-04-15T05:52:08;8.6;;;4.4;;
58306;SDS011;44116;50.884;4.768;2023-04-15T05:54:08;9.7;;;4.7;;
58306;SDS011;44116;50.884;4.768;2023-04-15T05:56:07;7.9;;;4.1;;
58306;SDS011;44116;50.884;4.768;2023-04-15T05:58:07;9.4;;;4.7;;
58306;SDS011;44116;50.884;4.768;2023-04-15T06:00:07;7.9;;;5.1;;
58306;SDS011;44116;50.884;4.768;2023-04-15T06:02:06;10.2;;;4.6;;
58306;SDS011;44116;50.884;4.768;2023-04-15T06:04:06;8.8;;;4.7;;
58306;SDS011;44116;50.884;4.768;2023-04-15T06:06:06;7.9;;;4.3;;
58306;SDS011;44116;50.884;4.768;2023-04-15T06:10:06;10.0;;;4.7;;
58306;SDS011;44116;50.884;4.768;2023-04-15T06:12:05;10.3;;;5.1;;
58306;SDS011;44116;50.884;4.768;2023-04-15T06:14:04;11.4;;;5.0;;
58306;SDS011;44116;50.884;4.768;2023-04-15T06:18:04;9.2;;;5.4;;
58306;SDS011;44116;50.884;4.768;2023-04-15T06:20:04;11.8;;;5.1;;
58306;SDS011;44116;50.884;4.768;2023-04-15T06:22:03;10.8;;;5.5;;
58306;SDS011;44116;50.884;4.768;2023-04-15T06:24:03;12.1;;;5.8;;
58306;SDS011;44116;50.884;4.768;2023-04-15T06:26:02;13.0;;;6.7;;
58306;SDS011;44116;50.884;4.768;2023-04-15T06:30:02;17.0;;;7.2;;
58306;SDS011;44116;50.884;4.768;2023-04-15T06:32:01;13.6;;;6.9;;
58306;SDS011;44116;50.884;4.768;2023-04-15T06:34:01;12.8;;;6.8;;
58306;SDS011;44116;50.884;4.768;2023-04-15T06:36:01;13.6;;;7.1;;
58306;SDS011;44116;50.884;4.768;2023-04-15T06:38:00;13.0;;;7.0;;
58306;SDS011;44116;50.884;4.768;2023-04-15T06:40:00;15.7;;;7.3;;
58306;SDS011;44116;50.884;4.768;2023-04-15T06:42:00;13.0;;;7.2;;
58306;SDS011;44116;50.884;4.768;2023-04-15T06:45:59;15.7;;;7.1;;
58306;SDS011;44116;50.884;4.768;2023-04-15T06:47:59;12.7;;;6.8;;
58306;SDS011;44116;50.884;4.768;2023-04-15T06:49:58;15.4;;;7.2;;
58306;SDS011;44116;50.884;4.768;2023-04-15T06:51:58;14.9;;;7.1;;
58306;SDS011;44116;50.884;4.768;2023-04-15T06:53:58;14.3;;;7.2;;
58306;SDS011;44116;50.884;4.768;2023-04-15T06:57:57;13.8;;;6.6;;
58306;SDS011;44116;50.884;4.768;2023-04-15T06:59:57;14.2;;;7.0;;
58306;SDS011;44116;50.884;4.768;2023-04-15T07:01:56;13.4;;;6.7;;
58306;SDS011;44116;50.884;4.768;2023-04-15T07:03:56;16.2;;;7.1;;
58306;SDS011;44116;50.884;4.768;2023-04-15T07:05:56;12.5;;;6.5;;
58306;SDS011;44116;50.884;4.768;2023-04-15T07:07:55;12.3;;;6.3;;
58306;SDS011;44116;50.884;4.768;2023-04-15T07:09:55;11.4;;;6.8;;
58306;SDS011;44116;50.884;4.768;2023-04-15T07:11:55;14.7;;;7.0;;
58306;SDS011;44116;50.884;4.768;2023-04-15T07:13:56;12.6;;;6.4;;
58306;SDS011;44116;50.884;4.768;2023-04-15T07:15:54;13.4;;;7.0;;
58306;SDS011;44116;50.884;4.768;2023-04-15T07:17:54;12.6;;;6.7;;
58306;SDS011;44116;50.884;4.768;2023-04-15T07:19:53;12.3;;;6.5;;
58306;SDS011;44116;50.884;4.768;2023-04-15T07:21:53;12.2;;;6.9;;
58306;SDS011;44116;50.884;4.768;2023-04-15T07:23:53;13.5;;;6.4;;
58306;SDS011;44116;50.884;4.768;2023-04-15T07:25:53;11.3;;;7.0;;
58306;SDS011;44116;50.884;4.768;2023-04-15T07:27:53;12.2;;;6.8;;
58306;SDS011;44116;50.884;4.768;2023-04-15T07:29:52;13.9;;;7.3;;
58306;SDS011;44116;50.884;4.768;2023-04-15T07:31:51;12.8;;;7.1;;
58306;SDS011;44116;50.884;4.768;2023-04-15T07:33:51;13.6;;;7.2;;
58306;SDS011;44116;50.884;4.768;2023-04-15T07:35:51;12.1;;;7.4;;
58306;SDS011;44116;50.884;4.768;2023-04-15T07:37:51;12.6;;;6.9;;
58306;SDS011;44116;50.884;4.768;2023-04-15T07:39:50;14.0;;;7.4;;
58306;SDS011;44116;50.884;4.768;2023-04-15T07:43:49;13.4;;;7.7;;
58306;SDS011;44116;50.884;4.768;2023-04-15T07:45:49;14.4;;;7.3;;
58306;SDS011;44116;50.884;4.768;2023-04-15T07:47:49;11.5;;;7.1;;
58306;SDS011;44116;50.884;4.768;2023-04-15T07:49:49;12.2;;;7.2;;
58306;SDS011;44116;50.884;4.768;2023-04-15T07:51:48;12.5;;;7.5;;
58306;SDS011;44116;50.884;4.768;2023-04-15T07:53:48;11.9;;;7.4;;
58306;SDS011;44116;50.884;4.768;2023-04-15T07:55:48;14.6;;;7.7;;
58306;SDS011;44116;50.884;4.768;2023-04-15T07:59:47;13.5;;;7.2;;
58306;SDS011;44116;50.884;4.768;2023-04-15T08:01:47;13.8;;;7.0;;
58306;SDS011;44116;50.884;4.768;2023-04-15T08:03:46;12.6;;;7.3;;
58306;SDS011;44116;50.884;4.768;2023-04-15T08:05:46;13.3;;;7.8;;
58306;SDS011;44116;50.884;4.768;2023-04-15T08:07:46;12.8;;;7.1;;
58306;SDS011;44116;50.884;4.768;2023-04-15T08:13:45;14.9;;;7.5;;
58306;SDS011;44116;50.884;4.768;2023-04-15T08:15:45;15.0;;;7.6;;
58306;SDS011;44116;50.884;4.768;2023-04-15T08:17:44;13.8;;;7.3;;
58306;SDS011;44116;50.884;4.768;2023-04-15T08:19:44;17.3;;;7.6;;
58306;SDS011;44116;50.884;4.768;2023-04-15T08:21:44;14.0;;;8.2;;
58306;SDS011;44116;50.884;4.768;2023-04-15T08:23:45;11.7;;;7.4;;
58306;SDS011;44116;50.884;4.768;2023-04-15T08:25:43;13.6;;;7.3;;
58306;SDS011;44116;50.884;4.768;2023-04-15T08:27:43;13.6;;;7.4;;
58306;SDS011;44116;50.884;4.768;2023-04-15T08:29:43;11.2;;;6.7;;
58306;SDS011;44116;50.884;4.768;2023-04-15T08:31:42;14.2;;;7.3;;
58306;SDS011;44116;50.884;4.768;2023-04-15T08:35:42;12.6;;;6.9;;
58306;SDS011;44116;50.884;4.768;2023-04-15T08:37:41;11.8;;;7.2;;
58306;SDS011;44116;50.884;4.768;2023-04-15T08:39:41;13.0;;;7.6;;
58306;SDS011;44116;50.884;4.768;2023-04-15T08:41:45;15.5;;;7.8;;
58306;SDS011;44116;50.884;4.768;2023-04-15T08:43:45;14.7;;;8.6;;
58306;SDS011;44116;50.884;4.768;2023-04-15T08:47:41;13.8;;;8.1;;
58306;SDS011;44116;50.884;4.768;2023-04-15T08:49:41;15.0;;;8.7;;
58306;SDS011;44116;50.884;4.768;2023-04-15T08:51:40;14.7;;;8.6;;
58306;SDS011;44116;50.884;4.768;2023-04-15T08:53:39;16.9;;;8.7;;
58306;SDS011;44116;50.884;4.768;2023-04-15T08:55:42;16.1;;;9.2;;
58306;SDS011;44116;50.884;4.768;2023-04-15T08:57:39;16.1;;;8.9;;
58306;SDS011;44116;50.884;4.768;2023-04-15T08:59:39;15.2;;;8.1;;
58306;SDS011;44116;50.884;4.768;2023-04-15T09:01:39;15.5;;;8.8;;
58306;SDS011;44116;50.884;4.768;2023-04-15T09:03:38;13.6;;;9.0;;
58306;SDS011;44116;50.884;4.768;2023-04-15T09:05:38;11.8;;;8.3;;
58306;SDS011;44116;50.884;4.768;2023-04-15T09:07:37;12.0;;;7.2;;
58306;SDS011;44116;50.884;4.768;2023-04-15T09:09:37;13.1;;;7.4;;
58306;SDS011;44116;50.884;4.768;2023-04-15T09:11:37;11.7;;;7.0;;
58306;SDS011;44116;50.884;4.768;2023-04-15T09:13:37;11.2;;;7.4;;
58306;SDS011;44116;50.884;4.768;2023-04-15T09:15:37;11.2;;;7.0;;
58306;SDS011;44116;50.884;4.768;2023-04-15T09:17:41;10.8;;;6.9;;
58306;SDS011;44116;50.884;4.768;2023-04-15T09:19:36;13.5;;;7.3;;
58306;SDS011;44116;50.884;4.768;2023-04-15T09:21:36;12.1;;;7.4;;
58306;SDS011;44116;50.884;4.768;2023-04-15T09:25:35;14.0;;;8.4;;
58306;SDS011;44116;50.884;4.768;2023-04-15T09:27:35;13.8;;;8.7;;
58306;SDS011;44116;50.884;4.768;2023-04-15T09:29:35;13.4;;;8.2;;
58306;SDS011;44116;50.884;4.768;2023-04-15T09:31:35;11.6;;;7.7;;
58306;SDS011;44116;50.884;4.768;2023-04-15T09:33:34;11.4;;;6.2;;
58306;SDS011;44116;50.884;4.768;2023-04-15T09:37:34;9.1;;;5.7;;
58306;SDS011;44116;50.884;4.768;2023-04-15T09:39:44;9.9;;;6.3;;
58306;SDS011;44116;50.884;4.768;2023-04-15T09:43:37;11.0;;;7.1;;
58306;SDS011;44116;50.884;4.768;2023-04-15T09:45:34;10.3;;;6.7;;
58306;SDS011;44116;50.884;4.768;2023-04-15T09:47:32;10.8;;;6.3;;
58306;SDS011;44116;50.884;4.768;2023-04-15T09:49:32;12.6;;;7.6;;
58306;SDS011;44116;50.884;4.768;2023-04-15T09:51:33;9.1;;;6.6;;
58306;SDS011;44116;50.884;4.768;2023-04-15T09:53:34;11.1;;;7.2;;
58306;SDS011;44116;50.884;4.768;2023-04-15T09:55:32;8.9;;;6.0;;
58306;SDS011;44116;50.884;4.768;2023-04-15T09:57:33;9.1;;;6.1;;
58306;SDS011;44116;50.884;4.768;2023-04-15T09:59:31;9.8;;;6.0;;
58306;SDS011;44116;50.884;4.768;2023-04-15T10:01:31;10.4;;;6.5;;
58306;SDS011;44116;50.884;4.768;2023-04-15T10:03:33;7.7;;;5.4;;
58306;SDS011;44116;50.884;4.768;2023-04-15T10:05:31;8.5;;;5.3;;
58306;SDS011;44116;50.884;4.768;2023-04-15T10:07:31;8.2;;;5.4;;
58306;SDS011;44116;50.884;4.768;2023-04-15T10:09:30;10.3;;;5.2;;
58306;SDS011;44116;50.884;4.768;2023-04-15T10:11:31;8.2;;;4.6;;
58306;SDS011;44116;50.884;4.768;2023-04-15T10:13:30;8.2;;;5.0;;
58306;SDS011;44116;50.884;4.768;2023-04-15T10:15:30;6.9;;;4.0;;
58306;SDS011;44116;50.884;4.768;2023-04-15T10:17:31;6.3;;;3.7;;
58306;SDS011;44116;50.884;4.768;2023-04-15T10:19:30;8.2;;;4.3;;
58306;SDS011;44116;50.884;4.768;2023-04-15T10:21:29;8.7;;;5.0;;
58306;SDS011;44116;50.884;4.768;2023-04-15T10:23:29;9.0;;;4.7;;
58306;SDS011;44116;50.884;4.768;2023-04-15T10:25:29;7.5;;;4.0;;
58306;SDS011;44116;50.884;4.768;2023-04-15T10:27:28;5.2;;;3.9;;
58306;SDS011;44116;50.884;4.768;2023-04-15T10:29:28;6.7;;;4.1;;
58306;SDS011;44116;50.884;4.768;2023-04-15T10:31:28;6.6;;;3.8;;
58306;SDS011;44116;50.884;4.768;2023-04-15T10:33:27;7.0;;;3.4;;
58306;SDS011;44116;50.884;4.768;2023-04-15T10:37:33;6.7;;;4.0;;
58306;SDS011;44116;50.884;4.768;2023-04-15T10:39:38;9.0;;;4.2;;
58306;SDS011;44116;50.884;4.768;2023-04-15T10:41:27;10.3;;;3.7;;
58306;SDS011;44116;50.884;4.768;2023-04-15T10:43:26;7.3;;;4.5;;
58306;SDS011;44116;50.884;4.768;2023-04-15T10:45:26;8.3;;;4.7;;
58306;SDS011;44116;50.884;4.768;2023-04-15T10:47:25;6.5;;;3.9;;
58306;SDS011;44116;50.884;4.768;2023-04-15T10:49:25;7.0;;;3.5;;
58306;SDS011;44116;50.884;4.768;2023-04-15T10:51:26;10.5;;;3.8;;
58306;SDS011;44116;50.884;4.768;2023-04-15T10:53:27;6.0;;;3.1;;
58306;SDS011;44116;50.884;4.768;2023-04-15T10:55:25;5.6;;;3.3;;
58306;SDS011;44116;50.884;4.768;2023-04-15T10:59:24;5.9;;;3.9;;
58306;SDS011;44116;50.884;4.768;2023-04-15T11:03:35;6.1;;;3.4;;
58306;SDS011;44116;50.884;4.768;2023-04-15T11:07:34;7.3;;;4.2;;
58306;SDS011;44116;50.884;4.768;2023-04-15T11:09:30;5.8;;;4.4;;
58306;SDS011;44116;50.884;4.768;2023-04-15T11:13:25;5.3;;;3.0;;
58306;SDS011;44116;50.884;4.768;2023-04-15T11:15:26;6.1;;;3.3;;
58306;SDS011;44116;50.884;4.768;2023-04-15T11:17:26;5.6;;;3.1;;
58306;SDS011;44116;50.884;4.768;2023-04-15T11:19:22;7.9;;;3.4;;
58306;SDS011;44116;50.884;4.768;2023-04-15T11:21:23;6.6;;;3.3;;
58306;SDS011;44116;50.884;4.768;2023-04-15T11:23:28;5.7;;;3.5;;
58306;SDS011;44116;50.884;4.768;2023-04-15T11:25:22;5.0;;;3.1;;
58306;SDS011;44116;50.884;4.768;2023-04-15T11:27:22;6.5;;;3.4;;
58306;SDS011;44116;50.884;4.768;2023-04-15T11:29:21;5.0;;;2.9;;
58306;SDS011;44116;50.884;4.768;2023-04-15T11:31:21;4.3;;;3.0;;
58306;SDS011;44116;50.884;4.768;2023-04-15T11:33:21;5.2;;;2.7;;
58306;SDS011;44116;50.884;4.768;2023-04-15T11:35:20;4.6;;;3.0;;
58306;SDS011;44116;50.884;4.768;2023-04-15T11:37:27;4.4;;;2.6;;
58306;SDS011;44116;50.884;4.768;2023-04-15T11:39:21;5.5;;;2.9;;
58306;SDS011;44116;50.884;4.768;2023-04-15T11:41:20;5.3;;;3.0;;
58306;SDS011;44116;50.884;4.768;2023-04-15T11:43:21;5.9;;;3.1;;
58306;SDS011;44116;50.884;4.768;2023-04-15T11:47:21;6.7;;;3.5;;
58306;SDS011;44116;50.884;4.768;2023-04-15T11:51:19;4.8;;;3.0;;
58306;SDS011;44116;50.884;4.768;2023-04-15T11:53:19;5.6;;;2.8;;
58306;SDS011;44116;50.884;4.768;2023-04-15T11:55:18;3.8;;;2.1;;
58306;SDS011;44116;50.884;4.768;2023-04-15T11:57:18;5.0;;;2.4;;
58306;SDS011;44116;50.884;4.768;2023-04-15T11:59:18;4.0;;;2.1;;
58306;SDS011;44116;50.884;4.768;2023-04-15T12:01:18;4.6;;;2.2;;
58306;SDS011;44116;50.884;4.768;2023-04-15T12:03:21;3.8;;;1.9;;
58306;SDS011;44116;50.884;4.768;2023-04-15T12:07:17;2.8;;;1.8;;
58306;SDS011;44116;50.884;4.768;2023-04-15T12:09:17;3.7;;;2.0;;
58306;SDS011;44116;50.884;4.768;2023-04-15T12:13:17;5.1;;;2.3;;
58306;SDS011;44116;50.884;4.768;2023-04-15T12:15:16;4.7;;;2.0;;
58306;SDS011;44116;50.884;4.768;2023-04-15T12:19:21;3.3;;;1.9;;
58306;SDS011;44116;50.884;4.768;2023-04-15T12:21:18;2.8;;;1.4;;
58306;SDS011;44116;50.884;4.768;2023-04-15T12:23:18;2.5;;;1.3;;
58306;SDS011;44116;50.884;4.768;2023-04-15T12:25:15;3.7;;;1.8;;
58306;SDS011;44116;50.884;4.768;2023-04-15T12:27:16;4.4;;;1.9;;
58306;SDS011;44116;50.884;4.768;2023-04-15T12:29:16;5.0;;;2.0;;
58306;SDS011;44116;50.884;4.768;2023-04-15T12:31:15;4.3;;;1.9;;
58306;SDS011;44116;50.884;4.768;2023-04-15T12:33:15;4.0;;;2.1;;
58306;SDS011;44116;50.884;4.768;2023-04-15T12:35:14;4.4;;;1.7;;
58306;SDS011;44116;50.884;4.768;2023-04-15T12:39:14;3.4;;;1.5;;
58306;SDS011;44116;50.884;4.768;2023-04-15T12:41:14;3.3;;;1.6;;
58306;SDS011;44116;50.884;4.768;2023-04-15T12:43:14;4.3;;;1.8;;
58306;SDS011;44116;50.884;4.768;2023-04-15T12:45:14;4.3;;;1.9;;
58306;SDS011;44116;50.884;4.768;2023-04-15T12:47:14;3.7;;;1.8;;
58306;SDS011;44116;50.884;4.768;2023-04-15T12:49:13;3.3;;;1.7;;
58306;SDS011;44116;50.884;4.768;2023-04-15T12:51:13;2.4;;;1.4;;
58306;SDS011;44116;50.884;4.768;2023-04-15T12:53:13;3.4;;;1.2;;
58306;SDS011;44116;50.884;4.768;2023-04-15T12:55:13;3.3;;;1.5;;
58306;SDS011;44116;50.884;4.768;2023-04-15T12:57:12;2.4;;;1.4;;
58306;SDS011;44116;50.884;4.768;2023-04-15T13:01:12;4.2;;;1.5;;
58306;SDS011;44116;50.884;4.768;2023-04-15T13:05:12;2.9;;;1.6;;
58306;SDS011;44116;50.884;4.768;2023-04-15T13:09:11;4.3;;;2.0;;
58306;SDS011;44116;50.884;4.768;2023-04-15T13:11:11;3.1;;;1.8;;
58306;SDS011;44116;50.884;4.768;2023-04-15T13:15:11;4.2;;;2.2;;
58306;SDS011;44116;50.884;4.768;2023-04-15T13:17:11;6.5;;;2.0;;
58306;SDS011;44116;50.884;4.768;2023-04-15T13:19:11;2.5;;;1.4;;
58306;SDS011;44116;50.884;4.768;2023-04-15T13:21:11;3.1;;;1.9;;
58306;SDS011;44116;50.884;4.768;2023-04-15T13:23:10;3.5;;;2.0;;
58306;SDS011;44116;50.884;4.768;2023-04-15T13:25:10;2.7;;;1.5;;
58306;SDS011;44116;50.884;4.768;2023-04-15T13:27:10;4.6;;;1.6;;
58306;SDS011;44116;50.884;4.768;2023-04-15T13:29:09;5.5;;;2.0;;
58306;SDS011;44116;50.884;4.768;2023-04-15T13:31:09;4.2;;;2.3;;
58306;SDS011;44116;50.884;4.768;2023-04-15T13:33:09;3.8;;;2.1;;
58306;SDS011;44116;50.884;4.768;2023-04-15T13:39:09;4.0;;;1.8;;
58306;SDS011;44116;50.884;4.768;2023-04-15T13:41:08;3.7;;;1.9;;
58306;SDS011;44116;50.884;4.768;2023-04-15T13:43:08;4.2;;;2.0;;
58306;SDS011;44116;50.884;4.768;2023-04-15T13:45:08;6.1;;;2.3;;
58306;SDS011;44116;50.884;4.768;2023-04-15T13:47:08;6.3;;;2.0;;
58306;SDS011;44116;50.884;4.768;2023-04-15T13:49:08;4.4;;;2.1;;
58306;SDS011;44116;50.884;4.768;2023-04-15T13:55:08;3.7;;;2.0;;
58306;SDS011;44116;50.884;4.768;2023-04-15T13:57:07;5.4;;;2.4;;
58306;SDS011;44116;50.884;4.768;2023-04-15T13:59:07;4.1;;;2.3;;
58306;SDS011;44116;50.884;4.768;2023-04-15T14:01:07;5.1;;;2.1;;
58306;SDS011;44116;50.884;4.768;2023-04-15T14:03:07;4.6;;;2.5;;
58306;SDS011;44116;50.884;4.768;2023-04-15T14:05:07;5.4;;;2.4;;
58306;SDS011;44116;50.884;4.768;2023-04-15T14:07:06;6.4;;;2.9;;
58306;SDS011;44116;50.884;4.768;2023-04-15T14:09:06;4.3;;;2.1;;
58306;SDS011;44116;50.884;4.768;2023-04-15T14:11:06;3.6;;;1.9;;
58306;SDS011;44116;50.884;4.768;2023-04-15T14:13:06;5.7;;;2.3;;
58306;SDS011;44116;50.884;4.768;2023-04-15T14:15:06;4.6;;;2.2;;
58306;SDS011;44116;50.884;4.768;2023-04-15T14:17:06;6.5;;;2.5;;
58306;SDS011;44116;50.884;4.768;2023-04-15T14:19:05;4.3;;;1.9;;
58306;SDS011;44116;50.884;4.768;2023-04-15T14:21:05;3.4;;;2.1;;
58306;SDS011;44116;50.884;4.768;2023-04-15T14:23:05;5.5;;;2.5;;